Time;durP1;ratioP1;P1;durP2;ratioP2;P2;SDS_P1;SDS_P2;PMS_P1;PMS_P2;Temp;Humidity;BMP_temperature;BMP_pressure;BME280_temperature;BME280_humidity;BME280_pressure;Samples;Min_cycle;Max_cycle;Signal;HPM_P1;HPM_P2
2023/03/21 00:00:35;;;;;;;14.40;5.00;;;10.10;99.90;;;;;;5069011;28;20047;-50
2023/03/21 00:03:01;;;;;;;16.83;4.97;;;10.10;99.90;;;;;;5067777;28;20033;-48
2023/03/21 00:05:27;;;;;;;15.67;4.63;;;10.10;99.90;;;;;;5068846;28;20630;-49
2023/03/21 00:07:53;;;;;;;13.43;4.67;;;10.10;99.90;;;;;;5050467;28;20032;-51
2023/03/21 00:10:19;;;;;;;12.80;5.20;;;10.10;99.90;;;;;;5069120;28;20060;-50
2023/03/21 00:12:49;;;;;;;12.33;4.37;;;10.10;99.90;;;;;;5068899;28;20058;-53
2023/03/21 00:15:17;;;;;;;14.27;4.50;;;10.00;99.90;;;;;;5068913;28;20029;-51
2023/03/21 00:17:43;;;;;;;13.70;4.60;;;10.00;99.90;;;;;;5067258;28;20021;-52
2023/03/21 00:20:19;;;;;;;16.13;4.70;;;10.00;99.90;;;;;;5069048;28;20028;-49
2023/03/21 00:22:45;;;;;;;12.83;5.20;;;10.10;99.90;;;;;;5068850;28;20548;-52
2023/03/21 00:25:11;;;;;;;18.97;4.87;;;10.10;99.90;;;;;;5068917;28;20173;-51
2023/03/21 00:27:36;;;;;;;13.07;4.70;;;10.10;99.90;;;;;;5068477;28;20036;-48
2023/03/21 00:30:04;;;;;;;14.47;4.33;;;10.10;99.90;;;;;;5050616;28;20047;-50
2023/03/21 00:32:29;;;;;;;14.53;4.50;;;10.10;99.90;;;;;;5049695;28;20045;-52
2023/03/21 00:34:55;;;;;;;14.60;4.43;;;10.10;99.90;;;;;;5068667;28;20029;-53
2023/03/21 00:37:21;;;;;;;12.87;4.40;;;10.10;99.90;;;;;;5068381;28;20024;-51
2023/03/21 00:39:48;;;;;;;14.97;4.87;;;10.10;99.90;;;;;;5050555;28;20085;-53
2023/03/21 00:42:17;;;;;;;12.50;4.30;;;10.10;99.90;;;;;;5068745;28;20089;-52
2023/03/21 00:44:43;;;;;;;13.70;4.23;;;10.10;99.90;;;;;;5068285;28;20079;-52
2023/03/21 00:47:11;;;;;;;13.77;5.20;;;10.00;99.90;;;;;;5062413;22;20460;-51
2023/03/21 00:49:38;;;;;;;19.63;5.13;;;10.00;99.90;;;;;;5067705;28;20051;-52
2023/03/21 00:52:05;;;;;;;14.53;4.20;;;10.00;99.90;;;;;;5069573;28;20107;-51
2023/03/21 00:54:35;;;;;;;13.83;5.30;;;10.10;99.90;;;;;;5071891;28;20027;-54
2023/03/21 00:57:02;;;;;;;17.50;5.80;;;10.10;99.90;;;;;;5071812;28;20093;-53
2023/03/21 00:59:29;;;;;;;19.33;5.83;;;10.20;99.90;;;;;;5053754;28;20029;-50
2023/03/21 01:01:59;;;;;;;17.03;5.87;;;10.20;99.90;;;;;;5053624;28;20090;-53
2023/03/21 01:04:26;;;;;;;15.53;6.57;;;10.20;99.90;;;;;;5071152;28;20469;-53
2023/03/21 01:06:53;;;;;;;16.83;6.10;;;10.20;99.90;;;;;;5071550;28;20029;-54
2023/03/21 01:09:21;;;;;;;14.03;6.07;;;10.30;99.90;;;;;;5071623;28;20035;-52
2023/03/21 01:11:48;;;;;;;19.63;6.10;;;10.20;99.90;;;;;;5071782;28;20043;-52
2023/03/21 01:14:16;;;;;;;15.60;6.17;;;10.20;99.90;;;;;;5071757;28;20032;-51
2023/03/21 01:16:43;;;;;;;18.40;6.67;;;10.20;99.90;;;;;;5071278;28;20063;-52
2023/03/21 01:19:12;;;;;;;18.47;6.63;;;10.20;99.90;;;;;;5052851;28;20025;-53
2023/03/21 01:21:38;;;;;;;17.65;5.90;;;10.20;99.90;;;;;;5053664;28;20370;-50
2023/03/21 01:24:04;;;;;;;15.87;5.30;;;10.20;99.90;;;;;;5071587;28;20473;-53
2023/03/21 01:26:30;;;;;;;15.03;5.53;;;10.20;99.90;;;;;;5053134;28;20492;-49
2023/03/21 01:28:56;;;;;;;17.00;6.03;;;10.20;99.90;;;;;;5053412;28;20473;-53
2023/03/21 01:31:22;;;;;;;16.70;6.13;;;10.20;99.90;;;;;;5071160;28;20032;-53
2023/03/21 01:33:48;;;;;;;17.63;6.53;;;10.20;99.90;;;;;;5052505;28;20028;-48
2023/03/21 01:36:18;;;;;;;20.70;7.07;;;10.10;99.90;;;;;;5053424;28;20361;-50
2023/03/21 01:38:44;;;;;;;20.03;7.20;;;10.10;99.90;;;;;;5071052;28;20024;-51
2023/03/21 01:41:20;;;;;;;16.10;5.93;;;10.20;99.90;;;;;;5053015;28;20032;-49
2023/03/21 01:43:47;;;;;;;15.20;5.77;;;10.20;99.90;;;;;;5052780;28;20364;-48
2023/03/21 01:46:38;;;;;;;17.07;6.53;;;10.20;99.90;;;;;;5052741;28;20028;-50
2023/03/21 01:49:37;;;;;;;20.83;7.30;;;10.10;99.90;;;;;;5052214;28;20032;-53
2023/03/21 01:52:23;;;;;;;20.83;6.37;;;10.10;99.90;;;;;;5053087;28;20366;-52
2023/03/21 01:54:51;;;;;;;15.03;6.30;;;10.10;99.90;;;;;;5053067;28;20039;-49
2023/03/21 01:57:23;;;;;;;14.17;6.03;;;10.10;99.90;;;;;;5070803;28;20035;-49
2023/03/21 01:59:53;;;;;;;15.10;6.03;;;10.10;99.90;;;;;;5052753;28;20033;-50
2023/03/21 02:02:26;;;;;;;16.57;5.30;;;10.10;99.90;;;;;;5070773;28;20045;-52
2023/03/21 02:05:13;;;;;;;16.93;6.23;;;10.10;99.90;;;;;;5052082;28;20037;-48
2023/03/21 02:07:42;;;;;;;16.57;6.83;;;10.00;99.90;;;;;;5070361;28;20422;-49
2023/03/21 02:10:09;;;;;;;;;;;10.10;99.90;;;;;;5053211;28;20028;-50
2023/03/21 02:12:38;;;;;;;18.53;7.40;;;10.10;99.90;;;;;;5052534;28;20238;-52
2023/03/21 02:15:07;;;;;;;19.07;6.90;;;10.10;99.90;;;;;;5052498;28;20028;-52
2023/03/21 02:18:37;;;;;;;23.53;7.80;;;10.10;99.90;;;;;;5058107;28;20028;-50
2023/03/21 02:21:31;;;;;;;20.00;7.37;;;10.10;99.90;;;;;;5052547;28;20052;-52
2023/03/21 02:24:39;;;;;;;18.80;8.30;;;10.10;99.90;;;;;;5052246;28;20081;-51
2023/03/21 02:27:10;;;;;;;24.53;8.17;;;10.10;99.90;;;;;;5052322;28;20039;-52
2023/03/21 02:29:51;;;;;;;17.57;7.50;;;10.00;99.90;;;;;;5052258;28;20037;-51
2023/03/21 02:32:58;;;;;;;23.00;9.13;;;10.00;99.90;;;;;;5070140;28;20052;-52
2023/03/21 02:35:32;;;;;;;21.30;8.07;;;10.00;99.90;;;;;;5027489;28;20112;-51
2023/03/21 02:38:00;;;;;;;22.27;8.97;;;10.00;99.90;;;;;;5027167;28;20060;-53
2023/03/21 02:40:44;;;;;;;17.83;8.60;;;10.00;99.90;;;;;;5042931;28;20032;-52
2023/03/21 02:43:36;;;;;;;18.67;7.57;;;9.90;99.90;;;;;;5051831;28;20055;-53
2023/03/21 02:46:14;;;;;;;20.73;8.43;;;10.00;99.90;;;;;;5044809;28;20094;-51
2023/03/21 02:48:59;;;;;;;21.03;8.10;;;10.00;99.90;;;;;;5050994;28;20040;-54
2023/03/21 02:51:27;;;;;;;24.93;8.27;;;9.90;99.90;;;;;;5051977;28;20381;-53
2023/03/21 02:54:06;;;;;;;17.10;7.27;;;9.90;99.90;;;;;;5051589;28;20111;-55
2023/03/21 02:56:35;;;;;;;23.33;7.40;;;9.90;99.90;;;;;;5051624;28;20442;-56
2023/03/21 02:59:04;;;;;;;17.30;7.30;;;9.90;99.90;;;;;;5051621;28;20032;-53
2023/03/21 03:01:31;;;;;;;13.95;6.90;;;9.90;99.90;;;;;;5069510;28;20029;-51
2023/03/21 03:03:57;;;;;;;19.17;7.83;;;10.00;99.90;;;;;;5050712;28;20037;-53
2023/03/21 03:06:36;;;;;;;25.43;7.87;;;9.90;99.90;;;;;;5051269;28;20035;-50
2023/03/21 03:09:37;;;;;;;18.75;7.38;;;9.90;99.90;;;;;;5051346;28;20048;-51
2023/03/21 03:12:24;;;;;;;15.93;7.07;;;10.00;99.90;;;;;;5051512;28;20489;-51
2023/03/21 03:15:03;;;;;;;17.40;7.10;;;9.90;99.90;;;;;;5050897;28;20036;-53
2023/03/21 03:17:46;;;;;;;15.87;7.17;;;9.90;99.90;;;;;;5049746;28;20051;-55
2023/03/21 03:20:31;;;;;;;23.80;7.53;;;9.90;99.90;;;;;;5069636;28;20042;-54
2023/03/21 03:23:11;;;;;;;15.77;6.90;;;9.90;99.90;;;;;;5069221;28;20039;-55
2023/03/21 03:25:52;;;;;;;17.97;7.67;;;9.90;99.90;;;;;;5051379;28;20457;-54
2023/03/21 03:28:25;;;;;;;18.73;7.00;;;9.80;99.90;;;;;;5069356;28;20086;-53
2023/03/21 03:30:54;;;;;;;15.97;7.47;;;9.80;99.90;;;;;;5051467;28;20111;-54
2023/03/21 03:33:24;;;;;;;17.97;7.43;;;9.80;99.90;;;;;;5050370;28;20024;-53
2023/03/21 03:35:52;;;;;;;17.97;6.80;;;9.80;99.90;;;;;;5069352;28;20027;-55
2023/03/21 03:38:21;;;;;;;18.63;7.43;;;9.80;99.90;;;;;;5050828;28;20027;-53
2023/03/21 03:40:54;;;;;;;16.33;7.30;;;9.80;99.90;;;;;;5051305;28;20040;-54
2023/03/21 03:43:49;;;;;;;17.87;7.20;;;9.80;99.90;;;;;;5065731;28;20037;-52
2023/03/21 03:46:36;;;;;;;21.40;7.47;;;9.80;99.90;;;;;;5050976;28;20483;-53
2023/03/21 03:49:12;;;;;;;17.37;6.90;;;9.80;99.90;;;;;;5050173;28;20149;-55
2023/03/21 03:52:05;;;;;;;19.47;7.60;;;9.80;99.90;;;;;;5069322;28;20029;-50
2023/03/21 03:54:40;;;;;;;15.90;7.20;;;9.80;99.90;;;;;;5050753;28;20036;-54
2023/03/21 03:57:07;;;;;;;16.50;7.10;;;9.80;99.90;;;;;;5050671;28;20074;-51
2023/03/21 03:59:35;;;;;;;18.77;7.47;;;9.70;99.90;;;;;;5050899;28;20048;-53
2023/03/21 04:02:16;;;;;;;22.93;7.43;;;9.80;99.90;;;;;;5050567;28;20033;-53
2023/03/21 04:04:41;;;;;;;17.30;7.70;;;9.80;99.90;;;;;;5049897;28;20238;-53
2023/03/21 04:07:07;;;;;;;18.97;7.17;;;9.90;99.90;;;;;;5050943;28;20158;-53
2023/03/21 04:09:36;;;;;;;16.38;7.13;;;9.90;99.90;;;;;;5050698;28;20550;-55
2023/03/21 04:12:02;;;;;;;21.20;8.03;;;9.90;99.90;;;;;;5050928;28;20029;-53
2023/03/21 04:14:29;;;;;;;19.23;7.47;;;9.90;99.90;;;;;;5050494;28;20020;-54
2023/03/21 04:16:55;;;;;;;18.47;7.30;;;9.90;99.90;;;;;;5050269;28;20074;-52
2023/03/21 04:19:21;;;;;;;18.97;6.93;;;9.90;99.90;;;;;;5050002;28;20075;-54
2023/03/21 04:21:47;;;;;;;22.37;7.63;;;9.90;99.90;;;;;;5068894;28;20504;-52
2023/03/21 04:24:16;;;;;;;18.20;6.37;;;10.00;99.90;;;;;;5050532;28;20138;-51
2023/03/21 04:26:43;;;;;;;18.23;7.07;;;9.90;99.90;;;;;;5051182;28;20021;-53
2023/03/21 04:29:29;;;;;;;15.87;6.80;;;10.00;99.90;;;;;;5054427;28;20077;-55
2023/03/21 04:32:16;;;;;;;18.17;7.03;;;9.90;99.90;;;;;;5040566;28;20182;-53
2023/03/21 04:34:48;;;;;;;19.63;7.37;;;10.00;99.90;;;;;;5053759;28;20700;-49
2023/03/21 04:37:17;;;;;;;15.77;7.03;;;9.90;99.90;;;;;;5054231;28;20412;-54
2023/03/21 04:39:47;;;;;;;16.25;6.68;;;9.90;99.90;;;;;;5054368;28;20377;-51
2023/03/21 04:42:15;;;;;;;15.97;6.60;;;9.90;99.90;;;;;;5054226;28;20040;-53
2023/03/21 04:44:40;;;;;;;19.77;7.10;;;9.90;99.90;;;;;;5072163;28;20055;-51
2023/03/21 04:47:07;;;;;;;25.60;7.80;;;9.80;99.90;;;;;;5053487;28;20393;-52
2023/03/21 04:49:33;;;;;;;20.80;7.50;;;9.80;99.90;;;;;;5053532;28;20024;-54
2023/03/21 04:51:59;;;;;;;19.73;7.27;;;9.90;99.90;;;;;;5072218;28;20031;-53
2023/03/21 04:54:26;;;;;;;23.87;8.27;;;9.80;99.90;;;;;;5053785;28;20029;-56
2023/03/21 04:56:52;;;;;;;20.50;6.87;;;9.80;99.90;;;;;;5071500;28;20078;-52
2023/03/21 04:59:18;;;;;;;20.77;7.47;;;9.80;99.90;;;;;;5054007;28;20439;-53
2023/03/21 05:01:44;;;;;;;17.43;7.40;;;9.80;99.90;;;;;;5053644;28;20472;-54
2023/03/21 05:04:13;;;;;;;19.77;7.63;;;9.70;99.90;;;;;;5071157;28;20036;-54
2023/03/21 05:06:41;;;;;;;16.83;7.37;;;9.70;99.90;;;;;;5053109;28;20033;-55
2023/03/21 05:09:07;;;;;;;17.55;6.00;;;9.60;99.90;;;;;;5071850;28;20033;-54
2023/03/21 05:11:36;;;;;;;22.67;8.73;;;9.60;99.90;;;;;;5053442;28;20071;-53
2023/03/21 05:14:04;;;;;;;17.57;8.17;;;9.60;99.90;;;;;;5053645;28;20033;-51
2023/03/21 05:16:30;;;;;;;15.07;7.70;;;9.60;99.90;;;;;;5053027;28;20171;-54
2023/03/21 05:19:02;;;;;;;18.00;7.50;;;9.60;99.90;;;;;;5053159;28;20039;-49
2023/03/21 05:21:33;;;;;;;21.63;8.10;;;9.50;99.90;;;;;;5053847;28;20059;-51
2023/03/21 05:24:02;;;;;;;21.87;8.20;;;9.50;99.90;;;;;;5053346;28;20085;-55
2023/03/21 05:26:29;;;;;;;20.03;8.63;;;9.50;99.90;;;;;;5053501;28;20489;-53
2023/03/21 05:29:05;;;;;;;23.97;8.30;;;9.50;99.90;;;;;;5053750;28;20052;-53
2023/03/21 05:31:31;;;;;;;20.70;8.20;;;9.40;99.90;;;;;;5053330;28;20066;-54
2023/03/21 05:34:05;;;;;;;22.57;8.03;;;9.40;99.90;;;;;;5052862;28;20314;-54
2023/03/21 05:36:32;;;;;;;21.53;8.10;;;9.40;99.90;;;;;;5071226;28;20124;-53
2023/03/21 05:39:00;;;;;;;17.98;7.38;;;9.50;99.90;;;;;;5052336;28;20182;-53
2023/03/21 05:41:26;;;;;;;19.63;8.07;;;9.40;99.90;;;;;;5053175;28;20044;-48
2023/03/21 05:43:52;;;;;;;24.53;9.63;;;9.40;99.90;;;;;;5053177;28;20067;-56
2023/03/21 05:46:18;;;;;;;22.50;9.83;;;9.40;99.90;;;;;;5052957;28;20355;-53
2023/03/21 05:48:44;;;;;;;21.40;8.90;;;9.40;99.90;;;;;;5052139;28;20505;-55
2023/03/21 05:51:16;;;;;;;22.60;8.93;;;9.40;99.90;;;;;;5052876;28;20036;-54
2023/03/21 05:53:42;;;;;;;24.40;8.13;;;9.40;99.90;;;;;;5052978;28;20028;-50
2023/03/21 05:56:08;;;;;;;21.43;8.47;;;9.40;99.90;;;;;;5052492;28;20017;-54
2023/03/21 05:58:56;;;;;;;24.83;8.47;;;9.30;99.90;;;;;;5069970;28;20024;-53
2023/03/21 06:01:23;;;;;;;20.67;7.27;;;9.40;99.90;;;;;;5052288;28;20119;-51
2023/03/21 06:04:03;;;;;;;24.60;7.57;;;9.50;99.90;;;;;;5049943;28;20107;-51
2023/03/21 06:06:28;;;;;;;18.07;7.10;;;9.50;99.90;;;;;;5052163;28;20048;-51
2023/03/21 06:08:58;;;;;;;15.27;7.03;;;9.50;99.90;;;;;;5052731;28;20032;-53
2023/03/21 06:11:27;;;;;;;18.17;7.40;;;9.50;99.90;;;;;;5070757;28;20098;-55
2023/03/21 06:14:13;;;;;;;17.40;6.60;;;9.50;99.90;;;;;;5059420;28;20131;-53
2023/03/21 06:16:40;;;;;;;20.70;7.77;;;9.50;99.90;;;;;;5051757;28;20031;-52
2023/03/21 06:19:06;;;;;;;19.07;7.03;;;9.50;99.90;;;;;;5051491;28;20453;-53
2023/03/21 06:22:00;;;;;;;14.07;6.50;;;9.50;99.90;;;;;;5056922;28;20107;-54
2023/03/21 06:24:26;;;;;;;18.87;7.27;;;9.50;99.90;;;;;;5052112;28;20016;-51
2023/03/21 06:26:53;;;;;;;15.83;6.77;;;9.50;99.90;;;;;;5052084;28;20031;-53
2023/03/21 06:29:18;;;;;;;17.40;7.30;;;9.50;99.90;;;;;;5070080;28;20016;-52
2023/03/21 06:31:47;;;;;;;17.95;7.45;;;9.40;99.90;;;;;;5052166;28;20024;-53
2023/03/21 06:34:15;;;;;;;15.90;6.67;;;9.40;99.90;;;;;;5051446;28;20040;-53
2023/03/21 06:36:43;;;;;;;20.37;7.33;;;9.50;99.90;;;;;;5051921;28;20070;-55
2023/03/21 06:39:10;;;;;;;20.08;6.95;;;9.50;99.90;;;;;;5052103;28;20031;-52
2023/03/21 06:41:38;;;;;;;21.50;7.90;;;9.50;99.90;;;;;;5052090;28;20140;-53
2023/03/21 06:44:04;;;;;;;22.37;7.63;;;9.50;99.90;;;;;;5069520;28;20427;-52
2023/03/21 06:46:36;;;;;;;17.57;7.33;;;9.50;99.90;;;;;;5051287;28;20056;-54
2023/03/21 06:49:02;;;;;;;20.43;7.10;;;9.50;99.90;;;;;;5051087;28;20024;-57
2023/03/21 06:51:29;;;;;;;15.07;7.33;;;9.60;99.90;;;;;;5069694;28;20054;-55
2023/03/21 06:54:05;;;;;;;17.37;6.80;;;9.60;99.90;;;;;;5051818;28;20056;-52
2023/03/21 06:56:39;;;;;;;21.23;7.67;;;9.60;99.90;;;;;;5051365;28;20029;-54
2023/03/21 06:59:07;;;;;;;26.73;11.67;;;9.70;99.90;;;;;;5049919;28;20028;-53
2023/03/21 07:01:56;;;;;;;23.53;9.60;;;9.80;99.90;;;;;;5056084;28;20028;-53
2023/03/21 07:04:22;;;;;;;18.53;7.30;;;9.80;99.90;;;;;;5050959;28;20109;-51
2023/03/21 07:06:49;;;;;;;18.87;6.97;;;9.90;99.90;;;;;;5051541;28;20020;-51
2023/03/21 07:09:20;;;;;;;24.27;7.82;;;9.90;99.90;;;;;;5051625;28;20036;-54
2023/03/21 07:11:46;;;;;;;18.70;7.90;;;10.00;99.90;;;;;;5051845;28;20397;-53
2023/03/21 07:14:13;;;;;;;20.63;7.87;;;10.00;99.90;;;;;;5051436;28;20024;-50
2023/03/21 07:16:39;;;;;;;20.97;7.70;;;10.10;99.90;;;;;;5069056;28;20025;-50
2023/03/21 07:19:04;;;;;;;24.57;7.30;;;10.00;99.90;;;;;;5050847;28;20370;-47
2023/03/21 07:21:31;;;;;;;20.90;7.87;;;10.00;99.90;;;;;;5051724;28;20040;-53
2023/03/21 07:23:57;;;;;;;19.87;7.17;;;10.10;99.90;;;;;;5051439;28;20123;-53
2023/03/21 07:26:22;;;;;;;15.83;7.27;;;10.20;99.90;;;;;;5069427;28;20120;-53
2023/03/21 07:28:48;;;;;;;18.87;7.07;;;10.20;99.90;;;;;;5051186;28;20134;-49
2023/03/21 07:31:16;;;;;;;21.20;7.13;;;10.20;99.90;;;;;;5069048;28;20074;-53
2023/03/21 07:33:42;;;;;;;18.03;6.53;;;10.30;99.90;;;;;;5068277;28;20050;-49
2023/03/21 07:36:12;;;;;;;16.27;7.07;;;10.40;99.90;;;;;;5051290;28;20043;-53
2023/03/21 07:38:40;;;;;;;16.70;6.50;;;10.50;99.90;;;;;;5050891;28;20107;-49
2023/03/21 07:41:06;;;;;;;17.33;6.63;;;10.50;99.90;;;;;;5051806;28;20037;-53
2023/03/21 07:43:33;;;;;;;22.00;6.33;;;10.60;99.90;;;;;;5034595;28;20427;-52
2023/03/21 07:45:59;;;;;;;20.80;6.60;;;10.60;99.90;;;;;;5069238;28;20043;-52
2023/03/21 07:48:26;;;;;;;19.93;7.33;;;10.70;99.90;;;;;;5050537;28;20047;-53
2023/03/21 07:50:52;;;;;;;17.87;6.03;;;10.70;99.90;;;;;;5051494;28;20058;-50
2023/03/21 07:53:18;;;;;;;13.93;5.87;;;10.70;99.90;;;;;;5069167;28;20017;-58
2023/03/21 07:55:44;;;;;;;14.73;5.60;;;10.70;99.90;;;;;;5069521;28;20098;-50
2023/03/21 07:58:10;;;;;;;15.03;5.63;;;10.70;99.90;;;;;;5068764;28;20036;-51
2023/03/21 08:00:35;;;;;;;13.70;6.43;;;10.80;99.90;;;;;;5069375;28;20024;-58
2023/03/21 08:03:01;;;;;;;10.50;5.33;;;10.80;99.90;;;;;;5070977;28;20540;-56
2023/03/21 08:05:32;;;;;;;12.90;5.37;;;10.80;99.90;;;;;;5073438;28;20036;-54
2023/03/21 08:07:57;;;;;;;15.70;5.60;;;10.90;99.90;;;;;;5072833;28;20036;-62
2023/03/21 08:10:23;;;;;;;17.63;5.80;;;10.80;99.90;;;;;;5073183;28;20032;-58
2023/03/21 08:12:49;;;;;;;15.20;4.97;;;10.90;99.90;;;;;;5072655;28;20264;-58
2023/03/21 08:15:15;;;;;;;15.53;5.57;;;11.00;99.90;;;;;;5072975;28;20028;-58
2023/03/21 08:17:44;;;;;;;14.30;5.27;;;11.00;99.90;;;;;;5070937;28;20035;-60
2023/03/21 08:20:13;;;;;;;15.15;5.22;;;11.00;99.90;;;;;;5072896;28;20036;-59
2023/03/21 08:22:38;;;;;;;16.42;5.80;;;11.00;99.90;;;;;;5072652;28;20025;-59
2023/03/21 08:25:06;;;;;;;18.17;5.90;;;11.00;99.90;;;;;;5072835;28;20519;-60
2023/03/21 08:27:33;;;;;;;16.80;5.90;;;10.90;99.90;;;;;;5072160;28;20248;-59
2023/03/21 08:30:00;;;;;;;16.07;5.57;;;10.90;99.90;;;;;;5072673;28;20131;-57
2023/03/21 08:32:29;;;;;;;17.53;6.40;;;10.90;99.90;;;;;;5071942;28;20060;-56
2023/03/21 08:35:02;;;;;;;17.43;6.40;;;10.90;99.90;;;;;;5072586;28;20120;-56
2023/03/21 08:37:28;;;;;;;18.23;6.73;;;10.90;99.90;;;;;;5072326;28;20025;-54
2023/03/21 08:39:54;;;;;;;14.83;6.00;;;10.90;99.90;;;;;;5072743;28;20035;-55
2023/03/21 08:42:20;;;;;;;16.27;6.23;;;10.80;99.90;;;;;;5072816;28;20043;-56
2023/03/21 08:44:47;;;;;;;35.17;17.67;;;10.90;99.90;;;;;;5072624;28;20128;-54
2023/03/21 08:47:12;;;;;;;15.07;7.20;;;10.90;99.90;;;;;;5071839;28;20489;-54
2023/03/21 08:49:38;;;;;;;13.57;6.43;;;11.00;99.90;;;;;;5070660;28;20078;-54
2023/03/21 08:52:05;;;;;;;13.93;6.33;;;10.90;99.90;;;;;;5071950;28;20025;-51
2023/03/21 08:54:31;;;;;;;15.87;6.20;;;11.00;99.90;;;;;;5071596;28;20111;-53
2023/03/21 08:56:56;;;;;;;20.03;7.40;;;10.90;99.90;;;;;;5071618;28;20112;-51
2023/03/21 08:59:22;;;;;;;14.77;6.67;;;10.90;99.90;;;;;;5072018;28;20024;-51
2023/03/21 09:01:48;;;;;;;15.90;7.40;;;10.80;99.90;;;;;;5071502;28;20507;-52
2023/03/21 09:04:14;;;;;;;14.30;6.80;;;10.80;99.90;;;;;;5070794;28;20453;-53
2023/03/21 09:06:47;;;;;;;15.67;6.57;;;10.80;99.90;;;;;;5071383;28;20040;-52
2023/03/21 09:09:13;;;;;;;14.53;7.00;;;10.70;99.90;;;;;;5071300;28;20060;-54
2023/03/21 09:11:39;;;;;;;14.77;6.80;;;10.70;99.90;;;;;;5071882;28;20056;-55
2023/03/21 09:14:04;;;;;;;17.13;8.23;;;10.80;99.90;;;;;;5071437;28;20535;-52
2023/03/21 09:16:31;;;;;;;20.53;8.03;;;10.70;99.90;;;;;;5070706;28;20083;-55
2023/03/21 09:18:58;;;;;;;19.60;7.47;;;10.70;99.90;;;;;;5070701;28;20067;-51
2023/03/21 09:21:25;;;;;;;13.07;6.93;;;10.70;99.90;;;;;;5053310;28;20024;-56
2023/03/21 09:23:54;;;;;;;15.80;7.73;;;10.60;99.90;;;;;;5071037;28;20032;-52
2023/03/21 09:26:21;;;;;;;17.02;7.82;;;10.60;99.90;;;;;;5071394;28;20037;-55
2023/03/21 09:28:47;;;;;;;17.43;7.37;;;10.60;99.90;;;;;;5071082;28;20517;-52
2023/03/21 09:31:15;;;;;;;17.00;7.90;;;10.60;99.90;;;;;;5070698;28;20301;-51
2023/03/21 09:33:42;;;;;;;15.97;7.63;;;10.70;99.90;;;;;;5069981;28;20102;-54
2023/03/21 09:36:13;;;;;;;16.43;7.33;;;10.70;99.90;;;;;;5070877;28;20378;-56
2023/03/21 09:38:48;;;;;;;19.57;8.20;;;10.70;99.90;;;;;;5070432;28;20025;-54
2023/03/21 09:41:32;;;;;;;16.93;7.07;;;10.70;99.90;;;;;;5071276;28;20067;-54
2023/03/21 09:44:23;;;;;;;17.03;7.60;;;10.80;99.90;;;;;;5070810;28;20477;-55
2023/03/21 09:47:18;;;;;;;18.90;7.73;;;10.80;99.90;;;;;;5070692;28;20142;-54
2023/03/21 09:49:52;;;;;;;18.00;8.07;;;10.90;99.90;;;;;;5070537;28;20435;-53
2023/03/21 09:52:42;;;;;;;17.13;7.90;;;11.00;99.90;;;;;;5071177;28;20032;-55
2023/03/21 09:55:18;;;;;;;15.23;8.50;;;10.90;99.90;;;;;;5040640;28;20040;-53
2023/03/21 09:57:48;;;;;;;22.83;8.67;;;10.90;99.90;;;;;;5050159;28;20055;-54
2023/03/21 10:00:26;;;;;;;18.10;8.37;;;10.90;99.90;;;;;;5051207;28;20442;-54
2023/03/21 10:02:58;;;;;;;20.10;8.20;;;11.00;99.90;;;;;;5049663;28;20040;-55
2023/03/21 10:05:30;;;;;;;20.20;8.70;;;11.00;99.90;;;;;;5050766;28;20099;-55
2023/03/21 10:08:40;;;;;;;22.87;10.20;;;11.10;99.90;;;;;;5032360;28;20139;-54
2023/03/21 10:11:20;;;;;;;18.47;8.27;;;11.10;99.90;;;;;;5048587;28;20374;-54
2023/03/21 10:14:12;;;;;;;23.30;8.57;;;11.10;99.90;;;;;;5050051;28;20043;-53
2023/03/21 10:16:45;;;;;;;16.63;8.40;;;11.30;99.90;;;;;;5050194;28;20029;-56
2023/03/21 10:19:14;;;;;;;20.27;8.60;;;11.40;99.90;;;;;;5049725;28;20032;-54
2023/03/21 10:22:01;;;;;;;19.60;8.33;;;11.30;99.90;;;;;;5051099;28;20037;-56
2023/03/21 10:24:28;;;;;;;21.77;8.73;;;11.30;99.90;;;;;;5049224;28;20058;-54
2023/03/21 10:26:55;;;;;;;22.23;8.97;;;11.20;99.90;;;;;;5050032;28;20037;-53
2023/03/21 10:29:26;;;;;;;19.77;8.50;;;11.00;99.90;;;;;;5032266;28;20405;-56
2023/03/21 10:31:53;;;;;;;15.93;8.53;;;11.00;99.90;;;;;;5059056;28;20041;-54
2023/03/21 10:34:31;;;;;;;15.37;8.23;;;11.00;99.90;;;;;;5068703;28;20396;-55
2023/03/21 10:36:58;;;;;;;17.10;7.63;;;10.80;99.90;;;;;;5069674;28;20031;-55
2023/03/21 10:39:31;;;;;;;22.90;9.67;;;10.90;99.90;;;;;;5069696;28;20025;-53
2023/03/21 10:41:57;;;;;;;19.47;8.00;;;10.90;99.90;;;;;;5070211;28;20029;-56
2023/03/21 10:44:29;;;;;;;20.27;8.13;;;10.80;99.90;;;;;;5069469;28;20050;-58
2023/03/21 10:47:02;;;;;;;15.60;7.10;;;10.80;99.90;;;;;;5068653;28;20031;-56
2023/03/21 10:49:30;;;;;;;17.33;7.07;;;10.80;99.90;;;;;;5069134;28;20043;-53
2023/03/21 10:52:03;;;;;;;20.93;8.67;;;10.80;99.90;;;;;;5069782;28;20052;-55
2023/03/21 10:54:31;;;;;;;17.67;9.03;;;10.80;99.90;;;;;;5069463;28;20111;-54
2023/03/21 10:57:04;;;;;;;17.73;8.77;;;10.80;99.90;;;;;;5067705;28;20063;-57
2023/03/21 11:00:01;;;;;;;16.47;8.40;;;10.80;99.90;;;;;;5069145;28;20044;-55
2023/03/21 11:02:33;;;;;;;16.90;9.07;;;10.90;99.90;;;;;;5068700;28;20107;-56
2023/03/21 11:05:21;;;;;;;17.23;9.27;;;11.10;99.90;;;;;;5068952;28;20032;-55
2023/03/21 11:07:55;;;;;;;18.10;8.40;;;11.20;99.90;;;;;;5068325;28;20512;-53
2023/03/21 11:10:31;;;;;;;17.43;7.57;;;11.30;99.90;;;;;;5069538;28;20075;-55
2023/03/21 11:13:00;;;;;;;17.83;8.30;;;11.30;99.90;;;;;;5069113;28;20058;-55
2023/03/21 11:15:31;;;;;;;;;;;11.40;99.90;;;;;;5069870;28;20033;-56
2023/03/21 11:17:59;;;;;;;12.77;7.07;;;11.60;99.90;;;;;;5067633;28;19915;-56
2023/03/21 11:20:28;;;;;;;21.43;7.50;;;11.50;99.90;;;;;;5051321;28;20032;-55
2023/03/21 11:22:54;;;;;;;;;;;11.70;99.90;;;;;;5069817;28;20032;-56
2023/03/21 11:25:24;;;;;;;14.10;6.30;;;11.70;99.90;;;;;;5050692;28;20481;-55
2023/03/21 11:27:54;;;;;;;17.33;6.63;;;11.80;99.90;;;;;;5068246;28;20135;-57
2023/03/21 11:30:25;;;;;;;14.87;7.07;;;11.80;99.90;;;;;;5069228;28;20485;-56
2023/03/21 11:33:05;;;;;;;14.33;6.60;;;11.70;99.90;;;;;;5067672;28;20675;-54
2023/03/21 11:35:37;;;;;;;13.25;6.28;;;11.90;99.90;;;;;;5068955;28;20166;-55
2023/03/21 11:38:04;;;;;;;14.93;6.47;;;12.00;99.90;;;;;;5067673;28;20551;-55
2023/03/21 11:40:35;;;;;;;15.55;6.22;;;12.10;99.90;;;;;;5069192;28;20028;-55
2023/03/21 11:43:22;;;;;;;11.82;5.57;;;12.20;99.90;;;;;;5068430;28;20025;-55
2023/03/21 11:46:09;;;;;;;16.15;5.40;;;12.40;99.90;;;;;;5067806;28;20123;-56
2023/03/21 11:48:44;;;;;;;10.10;5.00;;;12.60;99.90;;;;;;5067421;28;20353;-55
2023/03/21 11:51:21;;;;;;;13.10;4.82;;;12.70;99.90;;;;;;5068937;28;20493;-51
2023/03/21 11:54:06;;;;;;;11.90;5.00;;;12.80;99.90;;;;;;5068588;28;20037;-52
2023/03/21 11:56:53;;;;;;;9.05;4.47;;;12.90;99.90;;;;;;5068081;28;20096;-51
2023/03/21 11:59:31;;;;;;;9.27;4.45;;;13.00;99.90;;;;;;5047424;28;20397;-50
2023/03/21 12:02:26;;;;;;;11.07;4.95;;;12.90;99.90;;;;;;5048076;28;20058;-57
2023/03/21 12:05:06;;;;;;;12.07;4.07;;;13.00;99.90;;;;;;5068098;28;20392;-56
2023/03/21 12:07:57;;;;;;;9.30;3.75;;;13.00;99.90;;;;;;5068289;28;20035;-55
2023/03/21 12:10:52;;;;;;;10.77;3.80;;;12.90;99.90;;;;;;5068605;28;20519;-53
2023/03/21 12:13:32;;;;;;;7.82;3.47;;;12.70;99.90;;;;;;5068512;28;20017;-54
2023/03/21 12:16:46;;;;;;;10.00;4.20;;;12.60;99.90;;;;;;5067942;28;20603;-54
2023/03/21 12:19:23;;;;;;;7.63;3.03;;;12.50;99.90;;;;;;5021001;28;20120;-53
2023/03/21 12:21:58;;;;;;;9.10;4.13;;;12.40;99.90;;;;;;5068305;28;20028;-55
2023/03/21 12:24:31;;;;;;;9.88;3.88;;;12.30;99.90;;;;;;5068530;28;20060;-53
2023/03/21 12:27:36;;;;;;;12.75;4.43;;;12.20;99.90;;;;;;5065957;28;20040;-56
2023/03/21 12:30:16;;;;;;;11.60;4.13;;;12.10;99.90;;;;;;5063080;28;20032;-57
2023/03/21 12:33:02;;;;;;;11.27;4.47;;;12.10;99.90;;;;;;5062921;28;20028;-55
2023/03/21 12:35:47;;;;;;;11.73;4.67;;;12.10;99.90;;;;;;5064972;28;20028;-56
2023/03/21 12:38:20;;;;;;;10.25;4.70;;;12.10;99.90;;;;;;5065341;28;20032;-56
2023/03/21 12:41:21;;;;;;;9.30;4.27;;;12.10;99.90;;;;;;5068764;28;20469;-54
2023/03/21 12:44:16;;;;;;;7.83;3.90;;;12.10;99.90;;;;;;5068061;28;20135;-53
2023/03/21 12:46:53;;;;;;;12.43;4.37;;;12.10;99.90;;;;;;5063581;28;20106;-52
2023/03/21 12:49:38;;;;;;;8.07;4.07;;;12.00;99.90;;;;;;5070691;28;20028;-52
2023/03/21 12:52:10;;;;;;;12.27;4.40;;;12.10;99.90;;;;;;5072461;28;20032;-54
2023/03/21 12:54:55;;;;;;;12.13;4.57;;;12.10;99.90;;;;;;5071917;28;20036;-49
2023/03/21 12:57:30;;;;;;;14.32;4.68;;;12.10;99.90;;;;;;5071554;28;20523;-57
2023/03/21 13:00:41;;;;;;;11.47;4.83;;;12.20;99.90;;;;;;5072085;28;20349;-54
2023/03/21 13:03:10;;;;;;;12.35;3.80;;;12.20;99.90;;;;;;4969709;28;20035;-54
2023/03/21 13:05:56;;;;;;;8.35;4.45;;;12.20;99.90;;;;;;4970468;28;20225;-52
2023/03/21 13:08:31;;;;;;;8.98;4.45;;;12.20;99.90;;;;;;5024742;28;20044;-53